Station Historical Data
Daily Summary for April 5, 2012 Units:  Both    English   Metric
« Previous Day
Next Day »
Daily Weekly Monthly Yearly Custom
  High: Low: Average:
Temperature: 72.9 °F /  22.7 °C 54.8 °F /  12.7 °C 62.5 °F /  16.9 °C
Dew Point: 62.4 °F /  16.9 °C 49.2 °F /  9.6 °C 57 °F /  13.9 °C
Humidity: 95% 44% 84%
Wind Speed: 17.0mph /  27.4km/h - 3.5mph /  5.6km/h
Wind Gust: 23.0mph /  37km/h - -
Wind- - WSW
Pressure: 29.79 in /  1008.7 hPa 29.61 in /  1002.6 hPa -
Precipitation: 0.00 in /  0 mm    
Historical Graphs
 
 
Tabular Data for April 5, 2012
Time Temperature Dew Point Pressure Wind Wind Speed Wind Gust Humidity Rainfall Rate (Hourly) Conditions
00:00 65.1 °F /  18.4 °C 61.8 °F /  16.6 °C 29.70in /  1005.6hPa SW 1.0mph /  1.6km/h 1.0mph /  1.6km/h 89% 0.00in /  0mm
00:02 65.0 °F /  18.3 °C 61.7 °F /  16.5 °C 29.69in /  1005.3hPa SW 1.0mph /  1.6km/h 1.0mph /  1.6km/h 89% 0.00in /  0mm
00:07 64.8 °F /  18.2 °C 61.5 °F /  16.4 °C 29.70in /  1005.6hPa SW 1.0mph /  1.6km/h 1.0mph /  1.6km/h 89% 0.00in /  0mm
00:13 64.7 °F /  18.2 °C 61.4 °F /  16.3 °C 29.70in /  1005.6hPa SW 2.0mph /  3.2km/h 2.0mph /  3.2km/h 89% 0.00in /  0mm
00:18 64.6 °F /  18.1 °C 61.3 °F /  16.3 °C 29.70in /  1005.6hPa SW 2.0mph /  3.2km/h 2.0mph /  3.2km/h 89% 0.00in /  0mm
00:23 64.6 °F /  18.1 °C 61.3 °F /  16.3 °C 29.70in /  1005.6hPa SW 1.0mph /  1.6km/h 2.0mph /  3.2km/h 89% 0.00in /  0mm
00:28 64.6 °F /  18.1 °C 61.3 °F /  16.3 °C 29.70in /  1005.6hPa Calm   2.0mph /  3.2km/h 89% 0.00in /  0mm
00:33 64.4 °F /  18 °C 61.1 °F /  16.2 °C 29.70in /  1005.6hPa WSW 1.0mph /  1.6km/h 1.0mph /  1.6km/h 89% 0.00in /  0mm
00:38 64.3 °F /  17.9 °C 61.3 °F /  16.3 °C 29.70in /  1005.6hPa Calm   1.0mph /  1.6km/h 90% 0.00in /  0mm
00:43 64.1 °F /  17.8 °C 61.1 °F /  16.2 °C 29.70in /  1005.6hPa SW 1.0mph /  1.6km/h 1.0mph /  1.6km/h 90% 0.00in /  0mm
00:48 63.8 °F /  17.7 °C 60.8 °F /  16 °C 29.70in /  1005.6hPa SW 1.0mph /  1.6km/h 1.0mph /  1.6km/h 90% 0.00in /  0mm
00:53 63.5 °F /  17.5 °C 60.5 °F /  15.8 °C 29.70in /  1005.6hPa SW 1.0mph /  1.6km/h 2.0mph /  3.2km/h 90% 0.00in /  0mm
00:58 63.4 °F /  17.4 °C 60.7 °F /  15.9 °C 29.70in /  1005.6hPa SSW 1.0mph /  1.6km/h 2.0mph /  3.2km/h 91% 0.00in /  0mm
01:03 63.3 °F /  17.4 °C 60.6 °F /  15.9 °C 29.70in /  1005.6hPa SW 1.0mph /  1.6km/h 2.0mph /  3.2km/h 91% 0.00in /  0mm
01:08 63.3 °F /  17.4 °C 60.6 °F /  15.9 °C 29.70in /  1005.6hPa SSW 1.0mph /  1.6km/h 1.0mph /  1.6km/h 91% 0.00in /  0mm
01:13 63.4 °F /  17.4 °C 60.7 °F /  15.9 °C 29.70in /  1005.6hPa SW 1.0mph /  1.6km/h 1.0mph /  1.6km/h 91% 0.00in /  0mm
01:18 63.5 °F /  17.5 °C 60.8 °F /  16 °C 29.70in /  1005.6hPa Calm   1.0mph /  1.6km/h 91% 0.00in /  0mm
01:23 63.4 °F /  17.4 °C 60.7 °F /  15.9 °C 29.70in /  1005.6hPa Calm     91% 0.00in /  0mm
01:28 63.2 °F /  17.3 °C 60.5 °F /  15.8 °C 29.70in /  1005.6hPa Calm     91% 0.00in /  0mm
01:33 63.0 °F /  17.2 °C 60.3 °F /  15.7 °C 29.69in /  1005.3hPa Calm     91% 0.00in /  0mm
01:38 62.6 °F /  17 °C 59.9 °F /  15.5 °C 29.69in /  1005.3hPa Calm     91% 0.00in /  0mm
01:43 62.3 °F /  16.8 °C 60.0 °F /  15.6 °C 29.69in /  1005.3hPa Calm     92% 0.00in /  0mm
01:48 62.1 °F /  16.7 °C 59.8 °F /  15.4 °C 29.69in /  1005.3hPa Calm     92% 0.00in /  0mm
01:53 62.0 °F /  16.7 °C 59.7 °F /  15.4 °C 29.69in /  1005.3hPa Calm     92% 0.00in /  0mm
01:58 61.8 °F /  16.6 °C 59.8 °F /  15.4 °C 29.69in /  1005.3hPa Calm     93% 0.00in /  0mm
02:03 61.4 °F /  16.3 °C 59.4 °F /  15.2 °C 29.69in /  1005.3hPa Calm     93% 0.00in /  0mm
02:08 61.1 °F /  16.2 °C 59.1 °F /  15.1 °C 29.69in /  1005.3hPa Calm     93% 0.00in /  0mm
02:13 60.9 °F /  16.1 °C 58.9 °F /  14.9 °C 29.69in /  1005.3hPa Calm     93% 0.00in /  0mm
02:18 60.9 °F /  16.1 °C 59.2 °F /  15.1 °C 29.69in /  1005.3hPa Calm     94% 0.00in /  0mm
02:23 60.7 °F /  15.9 °C 59.0 °F /  15 °C 29.69in /  1005.3hPa Calm     94% 0.00in /  0mm
02:28 60.4 °F /  15.8 °C 58.7 °F /  14.8 °C 29.69in /  1005.3hPa Calm     94% 0.00in /  0mm
02:33 60.6 °F /  15.9 °C 58.9 °F /  14.9 °C 29.69in /  1005.3hPa Calm     94% 0.00in /  0mm
02:38 60.7 °F /  15.9 °C 59.0 °F /  15 °C 29.69in /  1005.3hPa Calm     94% 0.00in /  0mm
02:43 60.7 °F /  15.9 °C 59.0 °F /  15 °C 29.69in /  1005.3hPa Calm     94% 0.00in /  0mm
02:48 60.5 °F /  15.8 °C 58.8 °F /  14.9 °C 29.69in /  1005.3hPa Calm     94% 0.00in /  0mm
02:53 60.5 °F /  15.8 °C 58.8 °F /  14.9 °C 29.69in /  1005.3hPa Calm     94% 0.00in /  0mm
02:59 60.5 °F /  15.8 °C 58.8 °F /  14.9 °C 29.69in /  1005.3hPa Calm     94% 0.00in /  0mm
03:04 60.3 °F /  15.7 °C 58.6 °F /  14.8 °C 29.69in /  1005.3hPa Calm     94% 0.00in /  0mm
03:09 59.9 °F /  15.5 °C 58.2 °F /  14.6 °C 29.69in /  1005.3hPa Calm     94% 0.00in /  0mm
03:14 59.7 °F /  15.4 °C 58.0 °F /  14.4 °C 29.69in /  1005.3hPa Calm     94% 0.00in /  0mm
03:19 59.5 °F /  15.3 °C 58.1 °F /  14.5 °C 29.69in /  1005.3hPa Calm     95% 0.00in /  0mm
03:24 59.4 °F /  15.2 °C 58.0 °F /  14.4 °C 29.68in /  1005hPa Calm     95% 0.00in /  0mm
03:29 59.3 °F /  15.2 °C 57.9 °F /  14.4 °C 29.68in /  1005hPa Calm     95% 0.00in /  0mm
03:34 59.1 °F /  15.1 °C 57.7 °F /  14.3 °C 29.68in /  1005hPa Calm     95% 0.00in /  0mm
03:39 58.9 °F /  14.9 °C 57.5 °F /  14.2 °C 29.68in /  1005hPa Calm     95% 0.00in /  0mm
03:44 58.5 °F /  14.7 °C 57.1 °F /  13.9 °C 29.67in /  1004.6hPa Calm     95% 0.00in /  0mm
03:49 58.0 °F /  14.4 °C 56.6 °F /  13.7 °C 29.67in /  1004.6hPa Calm     95% 0.00in /  0mm
03:54 57.8 °F /  14.3 °C 56.4 °F /  13.6 °C 29.68in /  1005hPa Calm     95% 0.00in /  0mm
03:59 57.9 °F /  14.4 °C 56.5 °F /  13.6 °C 29.67in /  1004.6hPa Calm     95% 0.00in /  0mm
04:04 57.5 °F /  14.2 °C 56.1 °F /  13.4 °C 29.67in /  1004.6hPa Calm     95% 0.00in /  0mm
04:09 57.2 °F /  14 °C 55.8 °F /  13.2 °C 29.67in /  1004.6hPa Calm     95% 0.00in /  0mm
04:14 58.0 °F /  14.4 °C 56.6 °F /  13.7 °C 29.68in /  1005hPa Calm     95% 0.00in /  0mm
04:19 58.3 °F /  14.6 °C 56.9 °F /  13.8 °C 29.68in /  1005hPa Calm     95% 0.00in /  0mm
04:24 58.6 °F /  14.8 °C 57.2 °F /  14 °C 29.68in /  1005hPa Calm     95% 0.00in /  0mm
04:29 58.9 °F /  14.9 °C 57.5 °F /  14.2 °C 29.68in /  1005hPa Calm     95% 0.00in /  0mm
04:35 59.0 °F /  15 °C 57.6 °F /  14.2 °C 29.68in /  1005hPa Calm     95% 0.00in /  0mm
04:40 59.0 °F /  15 °C 57.6 °F /  14.2 °C 29.68in /  1005hPa Calm     95% 0.00in /  0mm
04:45 59.0 °F /  15 °C 57.6 °F /  14.2 °C 29.68in /  1005hPa Calm   2.0mph /  3.2km/h 95% 0.00in /  0mm
04:50 59.1 °F /  15.1 °C 57.7 °F /  14.3 °C 29.68in /  1005hPa SW 1.0mph /  1.6km/h 1.0mph /  1.6km/h 95% 0.00in /  0mm
04:55 59.1 °F /  15.1 °C 57.7 °F /  14.3 °C 29.68in /  1005hPa Calm   2.0mph /  3.2km/h 95% 0.00in /  0mm
05:00 59.3 °F /  15.2 °C 57.9 °F /  14.4 °C 29.68in /  1005hPa SW 1.0mph /  1.6km/h 2.0mph /  3.2km/h 95% 0.00in /  0mm
05:05 59.4 °F /  15.2 °C 58.0 °F /  14.4 °C 29.68in /  1005hPa WSW 2.0mph /  3.2km/h 2.0mph /  3.2km/h 95% 0.00in /  0mm
05:10 59.4 °F /  15.2 °C 58.0 °F /  14.4 °C 29.68in /  1005hPa SW 1.0mph /  1.6km/h 1.0mph /  1.6km/h 95% 0.00in /  0mm
05:15 59.5 °F /  15.3 °C 58.1 °F /  14.5 °C 29.69in /  1005.3hPa SW 2.0mph /  3.2km/h 2.0mph /  3.2km/h 95% 0.00in /  0mm
05:20 59.7 °F /  15.4 °C 58.3 °F /  14.6 °C 29.69in /  1005.3hPa Calm   3.0mph /  4.8km/h 95% 0.00in /  0mm
05:25 59.8 °F /  15.4 °C 58.4 °F /  14.7 °C 29.69in /  1005.3hPa SW 2.0mph /  3.2km/h 3.0mph /  4.8km/h 95% 0.00in /  0mm
05:30 60.0 °F /  15.6 °C 58.6 °F /  14.8 °C 29.69in /  1005.3hPa SW 1.0mph /  1.6km/h 2.0mph /  3.2km/h 95% 0.00in /  0mm
05:35 59.9 °F /  15.5 °C 58.5 °F /  14.7 °C 29.69in /  1005.3hPa SW 1.0mph /  1.6km/h 2.0mph /  3.2km/h 95% 0.00in /  0mm
05:40 59.9 °F /  15.5 °C 58.5 °F /  14.7 °C 29.69in /  1005.3hPa SW 1.0mph /  1.6km/h 2.0mph /  3.2km/h 95% 0.00in /  0mm
05:45 59.8 °F /  15.4 °C 58.4 °F /  14.7 °C 29.69in /  1005.3hPa WSW 2.0mph /  3.2km/h 2.0mph /  3.2km/h 95% 0.00in /  0mm
05:50 59.9 °F /  15.5 °C 58.5 °F /  14.7 °C 29.69in /  1005.3hPa SW 2.0mph /  3.2km/h 2.0mph /  3.2km/h 95% 0.00in /  0mm
05:55 59.6 °F /  15.3 °C 58.2 °F /  14.6 °C 29.69in /  1005.3hPa Calm   1.0mph /  1.6km/h 95% 0.00in /  0mm
06:00 59.5 °F /  15.3 °C 58.1 °F /  14.5 °C 29.69in /  1005.3hPa SW 1.0mph /  1.6km/h 1.0mph /  1.6km/h 95% 0.00in /  0mm
06:05 59.4 °F /  15.2 °C 58.0 °F /  14.4 °C 29.69in /  1005.3hPa SW 1.0mph /  1.6km/h 1.0mph /  1.6km/h 95% 0.00in /  0mm
06:10 59.3 °F /  15.2 °C 57.9 °F /  14.4 °C 29.69in /  1005.3hPa SSW 1.0mph /  1.6km/h 2.0mph /  3.2km/h 95% 0.00in /  0mm
06:11 59.3 °F /  15.2 °C 57.9 °F /  14.4 °C 29.69in /  1005.3hPa SSW 1.0mph /  1.6km/h 2.0mph /  3.2km/h 95% 0.00in /  0mm
06:16 59.2 °F /  15.1 °C 57.8 °F /  14.3 °C 29.69in /  1005.3hPa Calm   1.0mph /  1.6km/h 95% 0.00in /  0mm
06:21 59.1 °F /  15.1 °C 57.7 °F /  14.3 °C 29.70in /  1005.6hPa Calm   1.0mph /  1.6km/h 95% 0.00in /  0mm
06:26 59.1 °F /  15.1 °C 57.7 °F /  14.3 °C 29.70in /  1005.6hPa Calm   1.0mph /  1.6km/h 95% 0.00in /  0mm
06:31 59.1 °F /  15.1 °C 57.7 °F /  14.3 °C 29.70in /  1005.6hPa Calm     95% 0.00in /  0mm
06:36 59.0 °F /  15 °C 57.6 °F /  14.2 °C 29.70in /  1005.6hPa Calm     95% 0.00in /  0mm
06:41 58.9 °F /  14.9 °C 57.5 °F /  14.2 °C 29.70in /  1005.6hPa Calm     95% 0.00in /  0mm
06:46 59.0 °F /  15 °C 57.6 °F /  14.2 °C 29.70in /  1005.6hPa Calm     95% 0.00in /  0mm
06:51 59.0 °F /  15 °C 57.6 °F /  14.2 °C 29.70in /  1005.6hPa Calm     95% 0.00in /  0mm
06:56 59.0 °F /  15 °C 57.6 °F /  14.2 °C 29.70in /  1005.6hPa Calm     95% 0.00in /  0mm
07:01 59.0 °F /  15 °C 57.6 °F /  14.2 °C 29.70in /  1005.6hPa Calm     95% 0.00in /  0mm
07:06 58.8 °F /  14.9 °C 57.4 °F /  14.1 °C 29.70in /  1005.6hPa SSE 1.0mph /  1.6km/h 1.0mph /  1.6km/h 95% 0.00in /  0mm
07:12 58.8 °F /  14.9 °C 57.4 °F /  14.1 °C 29.70in /  1005.6hPa Calm   1.0mph /  1.6km/h 95% 0.00in /  0mm
07:17 58.7 °F /  14.8 °C 57.3 °F /  14.1 °C 29.69in /  1005.3hPa Calm     95% 0.00in /  0mm
07:22 58.7 °F /  14.8 °C 57.3 °F /  14.1 °C 29.70in /  1005.6hPa Calm     95% 0.00in /  0mm
07:27 58.7 °F /  14.8 °C 57.3 °F /  14.1 °C 29.70in /  1005.6hPa SSE 2.0mph /  3.2km/h 2.0mph /  3.2km/h 95% 0.00in /  0mm
07:32 58.7 °F /  14.8 °C 57.3 °F /  14.1 °C 29.70in /  1005.6hPa Calm   2.0mph /  3.2km/h 95% 0.00in /  0mm
07:37 58.6 °F /  14.8 °C 57.2 °F /  14 °C 29.70in /  1005.6hPa SSW 1.0mph /  1.6km/h 1.0mph /  1.6km/h 95% 0.00in /  0mm
07:42 58.6 °F /  14.8 °C 57.2 °F /  14 °C 29.70in /  1005.6hPa Calm   1.0mph /  1.6km/h 95% 0.00in /  0mm
07:47 58.6 °F /  14.8 °C 57.2 °F /  14 °C 29.70in /  1005.6hPa WSW 1.0mph /  1.6km/h 2.0mph /  3.2km/h 95% 0.00in /  0mm
07:52 58.9 °F /  14.9 °C 57.5 °F /  14.2 °C 29.70in /  1005.6hPa SW 2.0mph /  3.2km/h 3.0mph /  4.8km/h 95% 0.00in /  0mm
07:58 59.2 °F /  15.1 °C 57.8 °F /  14.3 °C 29.71in /  1006hPa SW 3.0mph /  4.8km/h 3.0mph /  4.8km/h 95% 0.00in /  0mm
08:03 59.4 °F /  15.2 °C 58.0 °F /  14.4 °C 29.71in /  1006hPa South 3.0mph /  4.8km/h 3.0mph /  4.8km/h 95% 0.00in /  0mm
08:04 59.4 °F /  15.2 °C 58.0 °F /  14.4 °C 29.71in /  1006hPa South 3.0mph /  4.8km/h 3.0mph /  4.8km/h 95% 0.00in /  0mm
08:09 59.7 °F /  15.4 °C 58.3 °F /  14.6 °C 29.72in /  1006.3hPa South 3.0mph /  4.8km/h 4.0mph /  6.4km/h 95% 0.00in /  0mm
08:14 59.8 °F /  15.4 °C 58.4 °F /  14.7 °C 29.71in /  1006hPa South 2.0mph /  3.2km/h 4.0mph /  6.4km/h 95% 0.00in /  0mm
08:19 60.0 °F /  15.6 °C 58.6 °F /  14.8 °C 29.71in /  1006hPa SW 2.0mph /  3.2km/h 3.0mph /  4.8km/h 95% 0.00in /  0mm
08:24 60.1 °F /  15.6 °C 58.7 °F /  14.8 °C 29.70in /  1005.6hPa SSW 2.0mph /  3.2km/h 2.0mph /  3.2km/h 95% 0.00in /  0mm
08:29 60.4 °F /  15.8 °C 59.0 °F /  15 °C 29.71in /  1006hPa SW 2.0mph /  3.2km/h 3.0mph /  4.8km/h 95% 0.00in /  0mm
08:34 60.7 °F /  15.9 °C 59.3 °F /  15.2 °C 29.70in /  1005.6hPa SW 1.0mph /  1.6km/h 3.0mph /  4.8km/h 95% 0.00in /  0mm
08:39 60.8 °F /  16 °C 59.4 °F /  15.2 °C 29.70in /  1005.6hPa SW 2.0mph /  3.2km/h 4.0mph /  6.4km/h 95% 0.00in /  0mm
08:40 60.8 °F /  16 °C 59.4 °F /  15.2 °C 29.70in /  1005.6hPa SW 2.0mph /  3.2km/h 4.0mph /  6.4km/h 95% 0.00in /  0mm
08:45 60.8 °F /  16 °C 59.4 °F /  15.2 °C 29.70in /  1005.6hPa SW 3.0mph /  4.8km/h 4.0mph /  6.4km/h 95% 0.00in /  0mm
08:50 60.8 °F /  16 °C 59.4 °F /  15.2 °C 29.70in /  1005.6hPa SW 4.0mph /  6.4km/h 4.0mph /  6.4km/h 95% 0.00in /  0mm
08:55 60.9 °F /  16.1 °C 59.5 °F /  15.3 °C 29.70in /  1005.6hPa SW 4.0mph /  6.4km/h 4.0mph /  6.4km/h 95% 0.00in /  0mm
09:00 61.0 °F /  16.1 °C 59.6 °F /  15.3 °C 29.70in /  1005.6hPa SSW 2.0mph /  3.2km/h 3.0mph /  4.8km/h 95% 0.00in /  0mm
09:05 61.0 °F /  16.1 °C 59.3 °F /  15.2 °C 29.70in /  1005.6hPa SW 2.0mph /  3.2km/h 3.0mph /  4.8km/h 94% 0.00in /  0mm
09:10 61.1 °F /  16.2 °C 59.4 °F /  15.2 °C 29.70in /  1005.6hPa SW 1.0mph /  1.6km/h 3.0mph /  4.8km/h 94% 0.00in /  0mm
09:15 61.1 °F /  16.2 °C 59.4 °F /  15.2 °C 29.70in /  1005.6hPa SW 3.0mph /  4.8km/h 4.0mph /  6.4km/h 94% 0.00in /  0mm
09:20 61.0 °F /  16.1 °C 59.3 °F /  15.2 °C 29.71in /  1006hPa SW 3.0mph /  4.8km/h 7.0mph /  11.3km/h 94% 0.00in /  0mm
09:25 60.9 °F /  16.1 °C 59.2 °F /  15.1 °C 29.71in /  1006hPa SSW 2.0mph /  3.2km/h 4.0mph /  6.4km/h 94% 0.00in /  0mm
09:30 60.8 °F /  16 °C 59.1 °F /  15.1 °C 29.71in /  1006hPa SSW 4.0mph /  6.4km/h 6.0mph /  9.7km/h 94% 0.00in /  0mm
09:35 60.8 °F /  16 °C 59.1 °F /  15.1 °C 29.70in /  1005.6hPa SW 4.0mph /  6.4km/h 7.0mph /  11.3km/h 94% 0.00in /  0mm
09:40 60.9 °F /  16.1 °C 59.2 °F /  15.1 °C 29.71in /  1006hPa WSW 2.0mph /  3.2km/h 4.0mph /  6.4km/h 94% 0.00in /  0mm
09:45 61.0 °F /  16.1 °C 59.3 °F /  15.2 °C 29.70in /  1005.6hPa SW 3.0mph /  4.8km/h 5.0mph /  8km/h 94% 0.00in /  0mm
09:51 61.0 °F /  16.1 °C 59.3 °F /  15.2 °C 29.71in /  1006hPa SW 5.0mph /  8km/h 7.0mph /  11.3km/h 94% 0.00in /  0mm
09:56 61.1 °F /  16.2 °C 59.4 °F /  15.2 °C 29.70in /  1005.6hPa WSW 3.0mph /  4.8km/h 5.0mph /  8km/h 94% 0.00in /  0mm
10:01 61.3 °F /  16.3 °C 59.6 °F /  15.3 °C 29.70in /  1005.6hPa SW 4.0mph /  6.4km/h 5.0mph /  8km/h 94% 0.00in /  0mm
10:06 61.3 °F /  16.3 °C 59.3 °F /  15.2 °C 29.70in /  1005.6hPa South 2.0mph /  3.2km/h 5.0mph /  8km/h 93% 0.00in /  0mm
10:11 61.5 °F /  16.4 °C 59.5 °F /  15.3 °C 29.70in /  1005.6hPa SSW 1.0mph /  1.6km/h 3.0mph /  4.8km/h 93% 0.00in /  0mm
10:16 61.8 °F /  16.6 °C 59.8 °F /  15.4 °C 29.70in /  1005.6hPa SE 1.0mph /  1.6km/h 2.0mph /  3.2km/h 93% 0.00in /  0mm
10:21 62.0 °F /  16.7 °C 60.0 °F /  15.6 °C 29.70in /  1005.6hPa South 1.0mph /  1.6km/h 2.0mph /  3.2km/h 93% 0.00in /  0mm
10:26 62.2 °F /  16.8 °C 60.2 °F /  15.7 °C 29.69in /  1005.3hPa ESE 2.0mph /  3.2km/h 4.0mph /  6.4km/h 93% 0.00in /  0mm
10:31 62.3 °F /  16.8 °C 60.0 °F /  15.6 °C 29.70in /  1005.6hPa Calm   2.0mph /  3.2km/h 92% 0.00in /  0mm
10:36 62.7 °F /  17.1 °C 60.3 °F /  15.7 °C 29.70in /  1005.6hPa WSW 2.0mph /  3.2km/h 2.0mph /  3.2km/h 92% 0.00in /  0mm
10:41 62.9 °F /  17.2 °C 60.5 °F /  15.8 °C 29.70in /  1005.6hPa West 2.0mph /  3.2km/h 3.0mph /  4.8km/h 92% 0.00in /  0mm
10:47 63.2 °F /  17.3 °C 60.8 °F /  16 °C 29.70in /  1005.6hPa NNW 2.0mph /  3.2km/h 3.0mph /  4.8km/h 92% 0.00in /  0mm
10:52 63.2 °F /  17.3 °C 60.5 °F /  15.8 °C 29.70in /  1005.6hPa Calm   2.0mph /  3.2km/h 91% 0.00in /  0mm
10:58 63.5 °F /  17.5 °C 60.5 °F /  15.8 °C 29.70in /  1005.6hPa Calm   1.0mph /  1.6km/h 90% 0.00in /  0mm
11:03 63.6 °F /  17.6 °C 60.6 °F /  15.9 °C 29.70in /  1005.6hPa WNW 2.0mph /  3.2km/h 3.0mph /  4.8km/h 90% 0.00in /  0mm
11:08 63.9 °F /  17.7 °C 61.2 °F /  16.2 °C 29.70in /  1005.6hPa West 3.0mph /  4.8km/h 4.0mph /  6.4km/h 91% 0.00in /  0mm
11:13 64.1 °F /  17.8 °C 61.1 °F /  16.2 °C 29.70in /  1005.6hPa WNW 2.0mph /  3.2km/h 6.0mph /  9.7km/h 90% 0.00in /  0mm
11:18 64.2 °F /  17.9 °C 61.2 °F /  16.2 °C 29.71in /  1006hPa WNW 2.0mph /  3.2km/h 6.0mph /  9.7km/h 90% 0.00in /  0mm
11:23 64.6 °F /  18.1 °C 61.6 °F /  16.4 °C 29.71in /  1006hPa SW 4.0mph /  6.4km/h 5.0mph /  8km/h 90% 0.00in /  0mm
11:28 64.7 °F /  18.2 °C 61.7 °F /  16.5 °C 29.71in /  1006hPa WNW 2.0mph /  3.2km/h 6.0mph /  9.7km/h 90% 0.00in /  0mm
11:33 65.0 °F /  18.3 °C 62.0 °F /  16.7 °C 29.71in /  1006hPa WSW 4.0mph /  6.4km/h 5.0mph /  8km/h 90% 0.00in /  0mm
11:39 65.5 °F /  18.6 °C 61.9 °F /  16.6 °C 29.72in /  1006.3hPa West 1.0mph /  1.6km/h 5.0mph /  8km/h 88% 0.00in /  0mm
11:44 65.7 °F /  18.7 °C 61.7 °F /  16.5 °C 29.72in /  1006.3hPa WNW 5.0mph /  8km/h 6.0mph /  9.7km/h 87% 0.00in /  0mm
11:49 66.0 °F /  18.9 °C 61.4 °F /  16.3 °C 29.72in /  1006.3hPa WNW 3.0mph /  4.8km/h 5.0mph /  8km/h 85% 0.00in /  0mm
11:54 66.0 °F /  18.9 °C 61.0 °F /  16.1 °C 29.72in /  1006.3hPa NW 2.0mph /  3.2km/h 6.0mph /  9.7km/h 84% 0.00in /  0mm
11:59 66.3 °F /  19.1 °C 61.3 °F /  16.3 °C 29.71in /  1006hPa WSW 2.0mph /  3.2km/h 4.0mph /  6.4km/h 84% 0.00in /  0mm
12:04 66.9 °F /  19.4 °C 61.6 °F /  16.4 °C 29.71in /  1006hPa West 3.0mph /  4.8km/h 6.0mph /  9.7km/h 83% 0.00in /  0mm
12:10 67.7 °F /  19.8 °C 62.4 °F /  16.9 °C 29.71in /  1006hPa NW 3.0mph /  4.8km/h 3.0mph /  4.8km/h 83% 0.00in /  0mm
12:15 68.0 °F /  20 °C 62.0 °F /  16.7 °C 29.70in /  1005.6hPa West 3.0mph /  4.8km/h 4.0mph /  6.4km/h 81% 0.00in /  0mm
12:20 68.4 °F /  20.2 °C 61.6 °F /  16.4 °C 29.71in /  1006hPa West 2.0mph /  3.2km/h 6.0mph /  9.7km/h 79% 0.00in /  0mm
12:25 68.7 °F /  20.4 °C 62.3 °F /  16.8 °C 29.71in /  1006hPa SSW 4.0mph /  6.4km/h 4.0mph /  6.4km/h 80% 0.00in /  0mm
12:30 69.0 °F /  20.6 °C 61.5 °F /  16.4 °C 29.70in /  1005.6hPa SW 4.0mph /  6.4km/h 5.0mph /  8km/h 77% 0.00in /  0mm
12:35 69.1 °F /  20.6 °C 61.2 °F /  16.2 °C 29.70in /  1005.6hPa WSW 2.0mph /  3.2km/h 6.0mph /  9.7km/h 76% 0.00in /  0mm
12:40 69.1 °F /  20.6 °C 62.0 °F /  16.7 °C 29.69in /  1005.3hPa SW 1.0mph /  1.6km/h 3.0mph /  4.8km/h 78% 0.00in /  0mm
12:45 69.5 °F /  20.8 °C 62.3 °F /  16.8 °C 29.68in /  1005hPa NNW 4.0mph /  6.4km/h 5.0mph /  8km/h 78% 0.00in /  0mm
12:50 69.2 °F /  20.7 °C 62.1 °F /  16.7 °C 29.67in /  1004.6hPa NW 3.0mph /  4.8km/h 5.0mph /  8km/h 78% 0.00in /  0mm
12:55 69.1 °F /  20.6 °C 62.0 °F /  16.7 °C 29.67in /  1004.6hPa NW 2.0mph /  3.2km/h 3.0mph /  4.8km/h 78% 0.00in /  0mm
13:00 69.3 °F /  20.7 °C 61.4 °F /  16.3 °C 29.68in /  1005hPa West 2.0mph /  3.2km/h 5.0mph /  8km/h 76% 0.00in /  0mm
13:05 69.2 °F /  20.7 °C 61.7 °F /  16.5 °C 29.69in /  1005.3hPa West 5.0mph /  8km/h 5.0mph /  8km/h 77% 0.00in /  0mm
13:10 69.4 °F /  20.8 °C 61.5 °F /  16.4 °C 29.69in /  1005.3hPa SSW 4.0mph /  6.4km/h 6.0mph /  9.7km/h 76% 0.00in /  0mm
13:15 69.5 °F /  20.8 °C 61.6 °F /  16.4 °C 29.70in /  1005.6hPa WSW 5.0mph /  8km/h 9.0mph /  14.5km/h 76% 0.00in /  0mm
13:20 69.9 °F /  21.1 °C 61.6 °F /  16.4 °C 29.70in /  1005.6hPa SW 9.0mph /  14.5km/h 9.0mph /  14.5km/h 75% 0.00in /  0mm
13:25 69.9 °F /  21.1 °C 61.2 °F /  16.2 °C 29.70in /  1005.6hPa SW 5.0mph /  8km/h 7.0mph /  11.3km/h 74% 0.00in /  0mm
13:30 69.7 °F /  20.9 °C 61.4 °F /  16.3 °C 29.70in /  1005.6hPa WSW 6.0mph /  9.7km/h 6.0mph /  9.7km/h 75% 0.00in /  0mm
13:35 69.4 °F /  20.8 °C 60.8 °F /  16 °C 29.70in /  1005.6hPa WSW 5.0mph /  8km/h 10.0mph /  16.1km/h 74% 0.00in /  0mm
13:40 69.1 °F /  20.6 °C 59.7 °F /  15.4 °C 29.70in /  1005.6hPa SW 7.0mph /  11.3km/h 11.0mph /  17.7km/h 72% 0.00in /  0mm
13:45 68.8 °F /  20.4 °C 59.4 °F /  15.2 °C 29.70in /  1005.6hPa SW 8.0mph /  12.9km/h 12.0mph /  19.3km/h 72% 0.00in /  0mm
13:50 68.6 °F /  20.3 °C 59.6 °F /  15.3 °C 29.70in /  1005.6hPa West 4.0mph /  6.4km/h 9.0mph /  14.5km/h 73% 0.00in /  0mm
13:55 68.5 °F /  20.3 °C 58.7 °F /  14.8 °C 29.70in /  1005.6hPa WSW 6.0mph /  9.7km/h 11.0mph /  17.7km/h 71% 0.00in /  0mm
14:00 68.3 °F /  20.2 °C 58.2 °F /  14.6 °C 29.70in /  1005.6hPa WSW 7.0mph /  11.3km/h 10.0mph /  16.1km/h 70% 0.00in /  0mm
14:01 68.3 °F /  20.2 °C 58.2 °F /  14.6 °C 29.70in /  1005.6hPa SW 6.0mph /  9.7km/h 10.0mph /  16.1km/h 70% 0.00in /  0mm
14:06 68.3 °F /  20.2 °C 59.3 °F /  15.2 °C 29.70in /  1005.6hPa WSW 12.0mph /  19.3km/h 12.0mph /  19.3km/h 73% 0.00in /  0mm
14:11 68.2 °F /  20.1 °C 58.5 °F /  14.7 °C 29.69in /  1005.3hPa West 8.0mph /  12.9km/h 11.0mph /  17.7km/h 71% 0.00in /  0mm
14:16 68.2 °F /  20.1 °C 58.8 °F /  14.9 °C 29.69in /  1005.3hPa WSW 10.0mph /  16.1km/h 13.0mph /  20.9km/h 72% 0.00in /  0mm
14:21 68.2 °F /  20.1 °C 58.8 °F /  14.9 °C 29.69in /  1005.3hPa West 11.0mph /  17.7km/h 11.0mph /  17.7km/h 72% 0.00in /  0mm
14:26 68.4 °F /  20.2 °C 58.6 °F /  14.8 °C 29.68in /  1005hPa West 4.0mph /  6.4km/h 10.0mph /  16.1km/h 71% 0.00in /  0mm
14:31 69.1 °F /  20.6 °C 60.1 °F /  15.6 °C 29.68in /  1005hPa WSW 7.0mph /  11.3km/h 8.0mph /  12.9km/h 73% 0.00in /  0mm
14:36 69.0 °F /  20.6 °C 58.4 °F /  14.7 °C 29.68in /  1005hPa WSW 6.0mph /  9.7km/h 13.0mph /  20.9km/h 69% 0.00in /  0mm
14:42 69.5 °F /  20.8 °C 57.7 °F /  14.3 °C 29.68in /  1005hPa SW 9.0mph /  14.5km/h 14.0mph /  22.5km/h 66% 0.00in /  0mm
14:47 69.7 °F /  20.9 °C 58.7 °F /  14.8 °C 29.67in /  1004.6hPa SW 9.0mph /  14.5km/h 10.0mph /  16.1km/h 68% 0.00in /  0mm
14:52 69.9 °F /  21.1 °C 57.2 °F /  14 °C 29.67in /  1004.6hPa WSW 14.0mph /  22.5km/h 14.0mph /  22.5km/h 64% 0.00in /  0mm
14:57 70.1 °F /  21.2 °C 56.9 °F /  13.8 °C 29.66in /  1004.3hPa West 11.0mph /  17.7km/h 11.0mph /  17.7km/h 63% 0.00in /  0mm
15:02 70.4 °F /  21.3 °C 56.8 °F /  13.8 °C 29.66in /  1004.3hPa WNW 5.0mph /  8km/h 11.0mph /  17.7km/h 62% 0.00in /  0mm
15:07 70.4 °F /  21.3 °C 57.7 °F /  14.3 °C 29.66in /  1004.3hPa South 4.0mph /  6.4km/h 12.0mph /  19.3km/h 64% 0.00in /  0mm
15:12 70.2 °F /  21.2 °C 55.7 °F /  13.2 °C 29.65in /  1003.9hPa WNW 7.0mph /  11.3km/h 15.0mph /  24.1km/h 60% 0.00in /  0mm
15:17 70.4 °F /  21.3 °C 55.4 °F /  13 °C 29.66in /  1004.3hPa WNW 8.0mph /  12.9km/h 9.0mph /  14.5km/h 59% 0.00in /  0mm
15:22 70.4 °F /  21.3 °C 55.9 °F /  13.3 °C 29.66in /  1004.3hPa West 7.0mph /  11.3km/h 11.0mph /  17.7km/h 60% 0.00in /  0mm
15:27 70.4 °F /  21.3 °C 56.8 °F /  13.8 °C 29.66in /  1004.3hPa WSW 6.0mph /  9.7km/h 15.0mph /  24.1km/h 62% 0.00in /  0mm
15:32 70.4 °F /  21.3 °C 54.9 °F /  12.7 °C 29.65in /  1003.9hPa West 6.0mph /  9.7km/h 13.0mph /  20.9km/h 58% 0.00in /  0mm
15:38 70.7 °F /  21.5 °C 56.2 °F /  13.4 °C 29.66in /  1004.3hPa West 8.0mph /  12.9km/h 15.0mph /  24.1km/h 60% 0.00in /  0mm
15:43 70.5 °F /  21.4 °C 54.1 °F /  12.3 °C 29.65in /  1003.9hPa WNW 7.0mph /  11.3km/h 12.0mph /  19.3km/h 56% 0.00in /  0mm
15:48 70.5 °F /  21.4 °C 55.5 °F /  13.1 °C 29.64in /  1003.6hPa WNW 8.0mph /  12.9km/h 10.0mph /  16.1km/h 59% 0.00in /  0mm
15:53 70.6 °F /  21.4 °C 55.1 °F /  12.8 °C 29.64in /  1003.6hPa WNW 4.0mph /  6.4km/h 14.0mph /  22.5km/h 58% 0.00in /  0mm
15:58 70.9 °F /  21.6 °C 54.9 °F /  12.7 °C 29.64in /  1003.6hPa SW 8.0mph /  12.9km/h 10.0mph /  16.1km/h 57% 0.00in /  0mm
16:03 71.3 °F /  21.8 °C 53.8 °F /  12.1 °C 29.64in /  1003.6hPa West 3.0mph /  4.8km/h 8.0mph /  12.9km/h 54% 0.00in /  0mm
16:08 71.4 °F /  21.9 °C 55.4 °F /  13 °C 29.63in /  1003.3hPa WNW 6.0mph /  9.7km/h 8.0mph /  12.9km/h 57% 0.00in /  0mm
16:13 71.5 °F /  21.9 °C 51.9 °F /  11.1 °C 29.63in /  1003.3hPa West 5.0mph /  8km/h 9.0mph /  14.5km/h 50% 0.00in /  0mm
16:18 71.6 °F /  22 °C 54.1 °F /  12.3 °C 29.62in /  1002.9hPa WNW 7.0mph /  11.3km/h 8.0mph /  12.9km/h 54% 0.00in /  0mm
16:23 71.3 °F /  21.8 °C 53.3 °F /  11.8 °C 29.63in /  1003.3hPa WNW 3.0mph /  4.8km/h 6.0mph /  9.7km/h 53% 0.00in /  0mm
16:28 70.7 °F /  21.5 °C 50.6 °F /  10.3 °C 29.62in /  1002.9hPa West 4.0mph /  6.4km/h 8.0mph /  12.9km/h 49% 0.00in /  0mm
16:33 71.0 °F /  21.7 °C 50.9 °F /  10.5 °C 29.62in /  1002.9hPa West 3.0mph /  4.8km/h 7.0mph /  11.3km/h 49% 0.00in /  0mm
16:38 72.3 °F /  22.4 °C 52.1 °F /  11.2 °C 29.62in /  1002.9hPa West 2.0mph /  3.2km/h 4.0mph /  6.4km/h 49% 0.00in /  0mm
16:43 72.2 °F /  22.3 °C 50.9 °F /  10.5 °C 29.62in /  1002.9hPa SW 3.0mph /  4.8km/h 6.0mph /  9.7km/h 47% 0.00in /  0mm
16:48 72.5 °F /  22.5 °C 51.7 °F /  10.9 °C 29.61in /  1002.6hPa SW 3.0mph /  4.8km/h 6.0mph /  9.7km/h 48% 0.00in /  0mm
16:54 72.6 °F /  22.6 °C 52.9 °F /  11.6 °C 29.61in /  1002.6hPa SSW 4.0mph /  6.4km/h 5.0mph /  8km/h 50% 0.00in /  0mm
16:59 72.9 °F /  22.7 °C 52.1 °F /  11.2 °C 29.61in /  1002.6hPa WSW 1.0mph /  1.6km/h 3.0mph /  4.8km/h 48% 0.00in /  0mm
17:04 72.8 °F /  22.7 °C 49.6 °F /  9.8 °C 29.62in /  1002.9hPa SW 2.0mph /  3.2km/h 4.0mph /  6.4km/h 44% 0.00in /  0mm
17:09 72.3 °F /  22.4 °C 49.2 °F /  9.6 °C 29.62in /  1002.9hPa West 6.0mph /  9.7km/h 9.0mph /  14.5km/h 44% 0.00in /  0mm
17:14 72.6 °F /  22.6 °C 50.1 °F /  10.1 °C 29.62in /  1002.9hPa SSE 4.0mph /  6.4km/h 6.0mph /  9.7km/h 45% 0.00in /  0mm
17:19 72.5 °F /  22.5 °C 51.2 °F /  10.7 °C 29.62in /  1002.9hPa WNW 3.0mph /  4.8km/h 6.0mph /  9.7km/h 47% 0.00in /  0mm
17:24 71.3 °F /  21.8 °C 50.6 °F /  10.3 °C 29.63in /  1003.3hPa WSW 4.0mph /  6.4km/h 9.0mph /  14.5km/h 48% 0.00in /  0mm
17:29 70.6 °F /  21.4 °C 51.1 °F /  10.6 °C 29.63in /  1003.3hPa WSW 5.0mph /  8km/h 8.0mph /  12.9km/h 50% 0.00in /  0mm
17:34 70.2 °F /  21.2 °C 51.2 °F /  10.7 °C 29.63in /  1003.3hPa SW 9.0mph /  14.5km/h 9.0mph /  14.5km/h 51% 0.00in /  0mm
17:39 69.7 °F /  20.9 °C 51.3 °F /  10.7 °C 29.63in /  1003.3hPa WNW 8.0mph /  12.9km/h 11.0mph /  17.7km/h 52% 0.00in /  0mm
17:44 69.4 °F /  20.8 °C 50.5 °F /  10.3 °C 29.63in /  1003.3hPa West 4.0mph /  6.4km/h 7.0mph /  11.3km/h 51% 0.00in /  0mm
17:49 69.1 °F /  20.6 °C 50.2 °F /  10.1 °C 29.64in /  1003.6hPa West 6.0mph /  9.7km/h 7.0mph /  11.3km/h 51% 0.00in /  0mm
17:54 68.9 °F /  20.5 °C 50.6 °F /  10.3 °C 29.64in /  1003.6hPa West 8.0mph /  12.9km/h 11.0mph /  17.7km/h 52% 0.00in /  0mm
17:59 68.5 °F /  20.3 °C 50.7 °F /  10.4 °C 29.64in /  1003.6hPa WSW 5.0mph /  8km/h 7.0mph /  11.3km/h 53% 0.00in /  0mm
18:04 68.3 °F /  20.2 °C 51.0 °F /  10.6 °C 29.64in /  1003.6hPa WSW 8.0mph /  12.9km/h 9.0mph /  14.5km/h 54% 0.00in /  0mm
18:09 68.1 °F /  20.1 °C 50.3 °F /  10.2 °C 29.64in /  1003.6hPa WSW 4.0mph /  6.4km/h 10.0mph /  16.1km/h 53% 0.00in /  0mm
18:14 67.9 °F /  19.9 °C 50.7 °F /  10.4 °C 29.64in /  1003.6hPa WSW 8.0mph /  12.9km/h 8.0mph /  12.9km/h 54% 0.00in /  0mm
18:19 67.7 °F /  19.8 °C 51.0 °F /  10.6 °C 29.64in /  1003.6hPa West 3.0mph /  4.8km/h 5.0mph /  8km/h 55% 0.00in /  0mm
18:24 67.5 °F /  19.7 °C 50.8 °F /  10.4 °C 29.64in /  1003.6hPa WNW 6.0mph /  9.7km/h 6.0mph /  9.7km/h 55% 0.00in /  0mm
18:29 67.2 °F /  19.6 °C 51.0 °F /  10.6 °C 29.65in /  1003.9hPa WNW 5.0mph /  8km/h 12.0mph /  19.3km/h 56% 0.00in /  0mm
18:35 65.3 °F /  18.5 °C 53.2 °F /  11.8 °C 29.66in /  1004.3hPa WNW 16.0mph /  25.7km/h 17.0mph /  27.4km/h 65% 0.00in /  0mm
18:40 62.7 °F /  17.1 °C 55.8 °F /  13.2 °C 29.66in /  1004.3hPa WNW 9.0mph /  14.5km/h 21.0mph /  33.8km/h 78% 0.00in /  0mm
18:45 61.3 °F /  16.3 °C 55.1 °F /  12.8 °C 29.67in /  1004.6hPa NW 14.0mph /  22.5km/h 20.0mph /  32.2km/h 80% 0.00in /  0mm
18:50 60.5 °F /  15.8 °C 54.3 °F /  12.4 °C 29.67in /  1004.6hPa NW 17.0mph /  27.4km/h 23.0mph /  37km/h 80% 0.00in /  0mm
18:55 59.9 °F /  15.5 °C 54.1 °F /  12.3 °C 29.67in /  1004.6hPa NNW 14.0mph /  22.5km/h 20.0mph /  32.2km/h 81% 0.00in /  0mm
19:00 59.6 °F /  15.3 °C 54.1 °F /  12.3 °C 29.67in /  1004.6hPa NW 14.0mph /  22.5km/h 18.0mph /  29km/h 82% 0.00in /  0mm
19:05 59.5 °F /  15.3 °C 54.0 °F /  12.2 °C 29.67in /  1004.6hPa NW 9.0mph /  14.5km/h 21.0mph /  33.8km/h 82% 0.00in /  0mm
19:10 59.4 °F /  15.2 °C 53.9 °F /  12.2 °C 29.67in /  1004.6hPa NNW 17.0mph /  27.4km/h 17.0mph /  27.4km/h 82% 0.00in /  0mm
19:15 59.3 °F /  15.2 °C 54.5 °F /  12.5 °C 29.67in /  1004.6hPa NW 15.0mph /  24.1km/h 19.0mph /  30.6km/h 84% 0.00in /  0mm
19:20 59.0 °F /  15 °C 54.5 °F /  12.5 °C 29.67in /  1004.6hPa NW 8.0mph /  12.9km/h 16.0mph /  25.7km/h 85% 0.00in /  0mm
19:25 58.5 °F /  14.7 °C 54.3 °F /  12.4 °C 29.67in /  1004.6hPa NW 12.0mph /  19.3km/h 16.0mph /  25.7km/h 86% 0.00in /  0mm
19:30 58.4 °F /  14.7 °C 54.5 °F /  12.5 °C 29.67in /  1004.6hPa NNW 9.0mph /  14.5km/h 14.0mph /  22.5km/h 87% 0.00in /  0mm
19:35 58.3 °F /  14.6 °C 54.8 °F /  12.7 °C 29.67in /  1004.6hPa North 9.0mph /  14.5km/h 10.0mph /  16.1km/h 88% 0.00in /  0mm
19:40 58.3 °F /  14.6 °C 54.8 °F /  12.7 °C 29.67in /  1004.6hPa NNW 12.0mph /  19.3km/h 17.0mph /  27.4km/h 88% 0.00in /  0mm
19:45 58.3 °F /  14.6 °C 54.8 °F /  12.7 °C 29.67in /  1004.6hPa North 13.0mph /  20.9km/h 13.0mph /  20.9km/h 88% 0.00in /  0mm
19:46 58.2 °F /  14.6 °C 54.7 °F /  12.6 °C 29.67in /  1004.6hPa NNW 11.0mph /  17.7km/h 13.0mph /  20.9km/h 88% 0.00in /  0mm
19:51 58.0 °F /  14.4 °C 54.5 °F /  12.5 °C 29.67in /  1004.6hPa NNE 7.0mph /  11.3km/h 15.0mph /  24.1km/h 88% 0.00in /  0mm
19:56 57.8 °F /  14.3 °C 54.6 °F /  12.6 °C 29.67in /  1004.6hPa NNE 7.0mph /  11.3km/h 13.0mph /  20.9km/h 89% 0.00in /  0mm
20:01 57.6 °F /  14.2 °C 54.7 °F /  12.6 °C 29.67in /  1004.6hPa NNW 4.0mph /  6.4km/h 13.0mph /  20.9km/h 90% 0.00in /  0mm
20:06 57.4 °F /  14.1 °C 54.5 °F /  12.5 °C 29.68in /  1005hPa NNW 7.0mph /  11.3km/h 16.0mph /  25.7km/h 90% 0.00in /  0mm
20:11 57.2 °F /  14 °C 54.3 °F /  12.4 °C 29.68in /  1005hPa NNW 7.0mph /  11.3km/h 15.0mph /  24.1km/h 90% 0.00in /  0mm
20:17 57.2 °F /  14 °C 54.6 °F /  12.6 °C 29.68in /  1005hPa NNW 10.0mph /  16.1km/h 13.0mph /  20.9km/h 91% 0.00in /  0mm
20:22 57.1 °F /  13.9 °C 54.5 °F /  12.5 °C 29.68in /  1005hPa NNE 5.0mph /  8km/h 12.0mph /  19.3km/h 91% 0.00in /  0mm
20:27 57.0 °F /  13.9 °C 54.4 °F /  12.4 °C 29.68in /  1005hPa NNE 5.0mph /  8km/h 8.0mph /  12.9km/h 91% 0.00in /  0mm
20:32 56.9 °F /  13.8 °C 54.3 °F /  12.4 °C 29.68in /  1005hPa NNW 5.0mph /  8km/h 8.0mph /  12.9km/h 91% 0.00in /  0mm
20:37 56.8 °F /  13.8 °C 54.2 °F /  12.3 °C 29.69in /  1005.3hPa NW 6.0mph /  9.7km/h 12.0mph /  19.3km/h 91% 0.00in /  0mm
20:42 56.7 °F /  13.7 °C 54.1 °F /  12.3 °C 29.69in /  1005.3hPa North 4.0mph /  6.4km/h 12.0mph /  19.3km/h 91% 0.00in /  0mm
20:47 56.7 °F /  13.7 °C 53.8 °F /  12.1 °C 29.70in /  1005.6hPa NNE 6.0mph /  9.7km/h 11.0mph /  17.7km/h 90% 0.00in /  0mm
20:52 56.6 °F /  13.7 °C 53.7 °F /  12.1 °C 29.70in /  1005.6hPa NNW 9.0mph /  14.5km/h 12.0mph /  19.3km/h 90% 0.00in /  0mm
20:53 56.7 °F /  13.7 °C 53.8 °F /  12.1 °C 29.70in /  1005.6hPa North 4.0mph /  6.4km/h 12.0mph /  19.3km/h 90% 0.00in /  0mm
20:58 56.5 °F /  13.6 °C 53.6 °F /  12 °C 29.70in /  1005.6hPa NNW 11.0mph /  17.7km/h 11.0mph /  17.7km/h 90% 0.00in /  0mm
21:03 56.5 °F /  13.6 °C 53.6 °F /  12 °C 29.71in /  1006hPa NW 6.0mph /  9.7km/h 12.0mph /  19.3km/h 90% 0.00in /  0mm
21:08 56.4 °F /  13.6 °C 53.5 °F /  11.9 °C 29.71in /  1006hPa NNW 3.0mph /  4.8km/h 5.0mph /  8km/h 90% 0.00in /  0mm
21:13 56.2 °F /  13.4 °C 53.6 °F /  12 °C 29.71in /  1006hPa NW 5.0mph /  8km/h 10.0mph /  16.1km/h 91% 0.00in /  0mm
21:18 56.2 °F /  13.4 °C 53.6 °F /  12 °C 29.71in /  1006hPa NNW 1.0mph /  1.6km/h 8.0mph /  12.9km/h 91% 0.00in /  0mm
21:24 56.1 °F /  13.4 °C 53.5 °F /  11.9 °C 29.71in /  1006hPa North 1.0mph /  1.6km/h 6.0mph /  9.7km/h 91% 0.00in /  0mm
21:29 55.9 °F /  13.3 °C 53.3 °F /  11.8 °C 29.72in /  1006.3hPa NNW 3.0mph /  4.8km/h 6.0mph /  9.7km/h 91% 0.00in /  0mm
21:34 55.8 °F /  13.2 °C 53.2 °F /  11.8 °C 29.72in /  1006.3hPa NNW 2.0mph /  3.2km/h 5.0mph /  8km/h 91% 0.00in /  0mm
21:39 55.7 °F /  13.2 °C 53.4 °F /  11.9 °C 29.72in /  1006.3hPa NNE 3.0mph /  4.8km/h 3.0mph /  4.8km/h 92% 0.00in /  0mm
21:44 55.6 °F /  13.1 °C 53.3 °F /  11.8 °C 29.73in /  1006.7hPa North 3.0mph /  4.8km/h 4.0mph /  6.4km/h 92% 0.00in /  0mm
21:49 55.7 °F /  13.2 °C 53.4 °F /  11.9 °C 29.73in /  1006.7hPa NNE 5.0mph /  8km/h 6.0mph /  9.7km/h 92% 0.00in /  0mm
21:54 55.9 °F /  13.3 °C 53.6 °F /  12 °C 29.73in /  1006.7hPa NE 3.0mph /  4.8km/h 8.0mph /  12.9km/h 92% 0.00in /  0mm
22:00 56.1 °F /  13.4 °C 53.8 °F /  12.1 °C 29.74in /  1007hPa NNE 2.0mph /  3.2km/h 8.0mph /  12.9km/h 92% 0.00in /  0mm
22:05 56.2 °F /  13.4 °C 53.9 °F /  12.2 °C 29.74in /  1007hPa NNW 4.0mph /  6.4km/h 7.0mph /  11.3km/h 92% 0.00in /  0mm
22:10 56.2 °F /  13.4 °C 53.6 °F /  12 °C 29.74in /  1007hPa NNE 5.0mph /  8km/h 11.0mph /  17.7km/h 91% 0.00in /  0mm
22:15 56.2 °F /  13.4 °C 53.6 °F /  12 °C 29.75in /  1007.3hPa North 5.0mph /  8km/h 9.0mph /  14.5km/h 91% 0.00in /  0mm
22:20 56.0 °F /  13.3 °C 53.1 °F /  11.7 °C 29.75in /  1007.3hPa WNW 3.0mph /  4.8km/h 7.0mph /  11.3km/h 90% 0.00in /  0mm
22:25 55.9 °F /  13.3 °C 53.3 °F /  11.8 °C 29.75in /  1007.3hPa North 4.0mph /  6.4km/h 8.0mph /  12.9km/h 91% 0.00in /  0mm
22:30 55.8 °F /  13.2 °C 53.2 °F /  11.8 °C 29.75in /  1007.3hPa NW 2.0mph /  3.2km/h 7.0mph /  11.3km/h 91% 0.00in /  0mm
22:36 55.9 °F /  13.3 °C 53.3 °F /  11.8 °C 29.76in /  1007.7hPa North 4.0mph /  6.4km/h 6.0mph /  9.7km/h 91% 0.00in /  0mm
22:41 55.9 °F /  13.3 °C 53.0 °F /  11.7 °C 29.76in /  1007.7hPa NW 6.0mph /  9.7km/h 6.0mph /  9.7km/h 90% 0.00in /  0mm
22:46 55.9 °F /  13.3 °C 53.0 °F /  11.7 °C 29.76in /  1007.7hPa NNW 3.0mph /  4.8km/h 9.0mph /  14.5km/h 90% 0.00in /  0mm
22:51 55.8 °F /  13.2 °C 52.6 °F /  11.4 °C 29.76in /  1007.7hPa NNW 4.0mph /  6.4km/h 8.0mph /  12.9km/h 89% 0.00in /  0mm
22:57 55.8 °F /  13.2 °C 52.6 °F /  11.4 °C 29.76in /  1007.7hPa NNW 5.0mph /  8km/h 7.0mph /  11.3km/h 89% 0.00in /  0mm
23:02 55.8 °F /  13.2 °C 52.9 °F /  11.6 °C 29.77in /  1008hPa North 4.0mph /  6.4km/h 6.0mph /  9.7km/h 90% 0.00in /  0mm
23:07 55.7 °F /  13.2 °C 52.8 °F /  11.6 °C 29.77in /  1008hPa NNW 4.0mph /  6.4km/h 6.0mph /  9.7km/h 90% 0.00in /  0mm
23:12 55.7 °F /  13.2 °C 52.8 °F /  11.6 °C 29.77in /  1008hPa North 3.0mph /  4.8km/h 6.0mph /  9.7km/h 90% 0.00in /  0mm
23:17 55.7 °F /  13.2 °C 52.8 °F /  11.6 °C 29.77in /  1008hPa NW 2.0mph /  3.2km/h 6.0mph /  9.7km/h 90% 0.00in /  0mm
23:22 55.6 °F /  13.1 °C 52.7 °F /  11.5 °C 29.77in /  1008hPa NNE 3.0mph /  4.8km/h 10.0mph /  16.1km/h 90% 0.00in /  0mm
23:27 55.5 °F /  13.1 °C 52.6 °F /  11.4 °C 29.77in /  1008hPa North 3.0mph /  4.8km/h 7.0mph /  11.3km/h 90% 0.00in /  0mm
23:33 55.4 °F /  13 °C 52.5 °F /  11.4 °C 29.78in /  1008.4hPa North 4.0mph /  6.4km/h 8.0mph /  12.9km/h 90% 0.00in /  0mm
23:38 55.3 °F /  12.9 °C 52.4 °F /  11.3 °C 29.78in /  1008.4hPa NW 6.0mph /  9.7km/h 8.0mph /  12.9km/h 90% 0.00in /  0mm
23:43 55.2 °F /  12.9 °C 52.3 °F /  11.3 °C 29.78in /  1008.4hPa NW 6.0mph /  9.7km/h 10.0mph /  16.1km/h 90% 0.00in /  0mm
23:48 55.0 °F /  12.8 °C 52.1 °F /  11.2 °C 29.79in /  1008.7hPa NW 5.0mph /  8km/h 10.0mph /  16.1km/h 90% 0.00in /  0mm
23:50 54.9 °F /  12.7 °C 52.0 °F /  11.1 °C 29.79in /  1008.7hPa North 5.0mph /  8km/h 10.0mph /  16.1km/h 90% 0.00in /  0mm
23:56 54.8 °F /  12.7 °C 52.2 °F /  11.2 °C 29.79in /  1008.7hPa NNE 7.0mph /  11.3km/h 9.0mph /  14.5km/h 91% 0.00in /  0mm
Compliments of Weather Underground